Time;durP1;ratioP1;P1;durP2;ratioP2;P2;SDS_P1;SDS_P2;PMS_P1;PMS_P2;Temp;Humidity;BMP_temperature;BMP_pressure;BME280_temperature;BME280_humidity;BME280_pressure;Samples;Min_cycle;Max_cycle;Signal;HPM_P1;HPM_P2
2024/02/24 00:01:07;;;;;;;17.88;10.50;;;;;;;;;;5009245;28;20498;-85
2024/02/24 00:03:33;;;;;;;15.98;9.70;;;;;;;;;;5076243;28;20460;-84
2024/02/24 00:05:59;;;;;;;14.70;9.85;;;;;;;;;;5085980;28;20022;-84
2024/02/24 00:08:25;;;;;;;17.23;9.88;;;;;;;;;;5073298;28;20030;-84
2024/02/24 00:10:51;;;;;;;17.05;11.27;;;;;;;;;;5069392;28;20117;-84
2024/02/24 00:13:17;;;;;;;18.40;10.70;;;;;;;;;;5009660;28;20041;-84
2024/02/24 00:15:43;;;;;;;15.82;10.50;;;;;;;;;;5078286;28;20026;-84
2024/02/24 00:18:10;;;;;;;14.57;9.70;;;;;;;;;;5009193;28;20022;-85
2024/02/24 00:20:36;;;;;;;16.45;10.68;;;;;;;;;;5077717;28;20489;-85
2024/02/24 00:23:02;;;;;;;15.60;10.15;;;;;;;;;;5077478;28;20041;-86
2024/02/24 00:25:28;;;;;;;14.73;9.80;;;;;;;;;;5077377;28;20463;-85
2024/02/24 00:27:55;;;;;;;15.93;10.82;;;;;;;;;;5077104;28;20113;-85
2024/02/24 00:30:21;;;;;;;18.15;11.75;;;;;;;;;;5077324;28;20467;-85
2024/02/24 00:32:47;;;;;;;19.60;12.40;;;;;;;;;;5077338;28;20113;-84
2024/02/24 00:35:15;;;;;;;17.90;10.88;;;;;;;;;;5009748;28;20034;-84
2024/02/24 00:37:41;;;;;;;13.60;9.60;;;;;;;;;;5009466;28;20030;-84
2024/02/24 00:40:09;;;;;;;16.17;10.75;;;;;;;;;;5009585;28;20065;-86
2024/02/24 00:42:35;;;;;;;14.50;9.77;;;;;;;;;;5078268;28;20129;-85
2024/02/24 00:45:01;;;;;;;17.90;9.77;;;;;;;;;;5044737;28;20022;-84
2024/02/24 00:47:27;;;;;;;14.68;10.10;;;;;;;;;;5012230;28;20044;-88
2024/02/24 00:49:53;;;;;;;16.48;9.88;;;;;;;;;;5081723;28;20026;-84
2024/02/24 00:52:19;;;;;;;14.65;9.73;;;;;;;;;;5012618;28;20022;-85
2024/02/24 00:54:45;;;;;;;14.82;8.75;;;;;;;;;;5078941;28;20029;-86
2024/02/24 00:57:11;;;;;;;12.82;7.72;;;;;;;;;;5084734;28;20018;-85
2024/02/24 00:59:37;;;;;;;12.05;8.50;;;;;;;;;;5080955;28;20021;-84
2024/02/24 01:02:03;;;;;;;14.52;8.80;;;;;;;;;;5082160;28;20053;-84
2024/02/24 01:04:29;;;;;;;15.98;9.45;;;;;;;;;;5080733;28;20025;-85
2024/02/24 01:06:56;;;;;;;12.13;7.68;;;;;;;;;;5011191;28;20022;-84
2024/02/24 01:09:23;;;;;;;12.38;7.85;;;;;;;;;;5012925;28;20014;-84
2024/02/24 01:11:49;;;;;;;12.93;6.80;;;;;;;;;;5080096;28;20029;-85
2024/02/24 01:14:15;;;;;;;14.90;7.70;;;;;;;;;;5012546;28;20026;-85
2024/02/24 01:16:44;;;;;;;11.63;7.07;;;;;;;;;;5000120;28;20121;-84
2024/02/24 01:19:10;;;;;;;9.50;6.28;;;;;;;;;;5081079;28;20115;-85
2024/02/24 01:21:40;;;;;;;9.45;5.85;;;;;;;;;;5078690;28;20030;-85
2024/02/24 01:24:07;;;;;;;10.05;6.35;;;;;;;;;;5012388;28;20501;-87
2024/02/24 01:26:33;;;;;;;8.10;5.75;;;;;;;;;;5078777;28;20030;-85
2024/02/24 01:28:59;;;;;;;8.85;5.65;;;;;;;;;;5076573;28;20030;-90
2024/02/24 01:31:25;;;;;;;8.00;5.13;;;;;;;;;;5081160;28;20480;-90
2024/02/24 01:33:51;;;;;;;9.02;5.57;;;;;;;;;;5071107;28;20022;-89
2024/02/24 01:36:17;;;;;;;6.50;5.10;;;;;;;;;;5012206;28;20116;-88
2024/02/24 01:38:43;;;;;;;8.50;5.30;;;;;;;;;;5075491;28;20018;-85
2024/02/24 01:41:10;;;;;;;5.85;4.80;;;;;;;;;;5083774;28;20050;-85
2024/02/24 01:43:39;;;;;;;8.23;4.47;;;;;;;;;;5080435;28;20387;-85
2024/02/24 01:46:06;;;;;;;10.25;5.32;;;;;;;;;;5084367;28;20046;-85
2024/02/24 01:48:33;;;;;;;7.38;4.55;;;;;;;;;;5090604;28;20472;-87
2024/02/24 01:50:59;;;;;;;6.35;4.57;;;;;;;;;;5085486;28;20061;-85
2024/02/24 01:53:26;;;;;;;5.22;3.85;;;;;;;;;;5078817;28;20071;-85
2024/02/24 01:55:52;;;;;;;6.80;4.40;;;;;;;;;;5001090;28;20031;-86
2024/02/24 01:58:18;;;;;;;7.82;4.53;;;;;;;;;;5078125;28;20453;-86
2024/02/24 02:00:45;;;;;;;7.03;4.72;;;;;;;;;;5011135;28;20394;-86
2024/02/24 02:03:11;;;;;;;7.85;4.90;;;;;;;;;;5080796;28;20064;-85
2024/02/24 02:05:38;;;;;;;6.60;4.95;;;;;;;;;;5082863;28;20030;-85
2024/02/24 02:08:04;;;;;;;8.00;4.68;;;;;;;;;;5079356;28;20030;-86
2024/02/24 02:10:43;;;;;;;7.80;4.80;;;;;;;;;;5011276;28;20042;-85
2024/02/24 02:13:09;;;;;;;10.38;4.63;;;;;;;;;;5006726;28;20026;-86
2024/02/24 02:15:36;;;;;;;6.68;4.53;;;;;;;;;;5011791;28;20030;-85
2024/02/24 02:18:02;;;;;;;6.35;4.72;;;;;;;;;;5011243;28;20014;-85
2024/02/24 02:20:29;;;;;;;11.38;5.05;;;;;;;;;;5011746;28;20041;-85
2024/02/24 02:22:55;;;;;;;5.07;4.47;;;;;;;;;;5011018;28;20037;-84
2024/02/24 02:25:21;;;;;;;6.13;4.40;;;;;;;;;;5071052;28;20018;-84
2024/02/24 02:27:47;;;;;;;5.65;5.03;;;;;;;;;;5009592;28;20475;-85
2024/02/24 02:30:13;;;;;;;7.60;5.40;;;;;;;;;;5080188;28;20018;-83
2024/02/24 02:32:39;;;;;;;7.40;5.13;;;;;;;;;;5008592;28;20115;-84
2024/02/24 02:35:06;;;;;;;8.25;5.30;;;;;;;;;;5010355;28;20014;-84
2024/02/24 02:37:32;;;;;;;7.38;5.10;;;;;;;;;;5082545;28;20497;-84
2024/02/24 02:39:59;;;;;;;8.05;5.45;;;;;;;;;;5079593;28;20543;-85
2024/02/24 02:42:25;;;;;;;7.90;5.07;;;;;;;;;;5056437;28;20487;-85
2024/02/24 02:44:51;;;;;;;8.18;5.63;;;;;;;;;;5086626;28;20044;-85
2024/02/24 02:47:17;;;;;;;9.73;6.38;;;;;;;;;;5010525;28;20106;-85
2024/02/24 02:49:43;;;;;;;8.32;5.10;;;;;;;;;;5006288;28;20166;-84
2024/02/24 02:52:09;;;;;;;7.45;4.97;;;;;;;;;;5078841;28;20022;-85
2024/02/24 02:54:35;;;;;;;8.43;5.95;;;;;;;;;;5079242;28;20030;-85
2024/02/24 02:57:02;;;;;;;6.75;5.30;;;;;;;;;;5078437;28;20488;-85
2024/02/24 02:59:28;;;;;;;7.25;5.63;;;;;;;;;;5011529;28;20037;-86
2024/02/24 03:01:58;;;;;;;10.15;6.85;;;;;;;;;;5010819;28;20033;-85
2024/02/24 03:04:25;;;;;;;8.38;5.82;;;;;;;;;;5009218;28;20026;-85
2024/02/24 03:06:51;;;;;;;8.23;5.82;;;;;;;;;;5003678;28;20027;-85
2024/02/24 03:09:17;;;;;;;7.30;5.78;;;;;;;;;;5068310;28;20026;-85
2024/02/24 03:11:44;;;;;;;8.60;6.47;;;;;;;;;;5084193;28;20030;-87
2024/02/24 03:14:10;;;;;;;9.35;5.93;;;;;;;;;;5007288;28;20026;-84
2024/02/24 03:16:36;;;;;;;10.02;5.90;;;;;;;;;;5084651;28;20460;-83
2024/02/24 03:19:03;;;;;;;7.32;5.63;;;;;;;;;;5076749;28;20105;-83
2024/02/24 03:21:33;;;;;;;7.47;5.68;;;;;;;;;;5004523;28;20034;-84
2024/02/24 03:24:02;;;;;;;7.82;6.05;;;;;;;;;;5078020;28;20026;-85
2024/02/24 03:26:28;;;;;;;7.32;6.38;;;;;;;;;;5078376;28;20439;-85
2024/02/24 03:28:55;;;;;;;5.95;5.38;;;;;;;;;;5010152;28;20062;-86
2024/02/24 03:31:21;;;;;;;7.20;5.70;;;;;;;;;;5002480;28;20030;-84
2024/02/24 03:33:47;;;;;;;7.13;5.90;;;;;;;;;;5077648;28;20361;-84
2024/02/24 03:36:14;;;;;;;8.10;5.80;;;;;;;;;;5078087;28;20029;-84
2024/02/24 03:38:40;;;;;;;7.78;5.85;;;;;;;;;;5008790;28;20025;-84
2024/02/24 03:41:07;;;;;;;8.68;5.88;;;;;;;;;;5091767;28;20059;-85
2024/02/24 03:43:33;;;;;;;9.18;6.53;;;;;;;;;;5092795;28;20470;-84
2024/02/24 03:45:59;;;;;;;6.40;5.78;;;;;;;;;;5091969;28;20731;-85
2024/02/24 03:48:25;;;;;;;8.40;6.20;;;;;;;;;;5091655;28;20020;-85
2024/02/24 03:50:51;;;;;;;7.80;6.57;;;;;;;;;;5091544;28;20497;-85
2024/02/24 03:53:17;;;;;;;7.53;6.57;;;;;;;;;;5091687;28;20537;-84
2024/02/24 03:55:44;;;;;;;7.40;5.95;;;;;;;;;;5091819;28;20024;-85
2024/02/24 03:58:10;;;;;;;7.45;6.03;;;;;;;;;;5091215;28;20020;-85
2024/02/24 04:00:36;;;;;;;8.13;5.97;;;;;;;;;;5091657;28;20454;-85
2024/02/24 04:03:02;;;;;;;8.68;6.35;;;;;;;;;;5092295;28;20107;-86
2024/02/24 04:05:28;;;;;;;6.15;5.05;;;;;;;;;;5092993;28;20039;-86
2024/02/24 04:07:54;;;;;;;7.32;6.10;;;;;;;;;;5090809;28;20043;-84
2024/02/24 04:10:20;;;;;;;7.60;5.85;;;;;;;;;;5082625;28;20020;-84
2024/02/24 04:12:46;;;;;;;6.70;5.15;;;;;;;;;;5089083;28;20024;-83
2024/02/24 04:15:17;;;;;;;6.88;4.85;;;;;;;;;;5091503;28;20058;-83
2024/02/24 04:17:44;;;;;;;6.60;4.97;;;;;;;;;;5090984;28;20069;-85
2024/02/24 04:20:10;;;;;;;7.47;5.53;;;;;;;;;;5091488;28;20478;-86
2024/02/24 04:22:36;;;;;;;6.63;4.05;;;;;;;;;;5090718;28;20039;-86
2024/02/24 04:25:03;;;;;;;5.82;4.55;;;;;;;;;;5092473;28;20024;-86
2024/02/24 04:27:29;;;;;;;4.70;4.20;;;;;;;;;;5091181;28;20050;-86
2024/02/24 04:29:55;;;;;;;5.88;4.60;;;;;;;;;;5091156;28;20024;-86
2024/02/24 04:32:21;;;;;;;4.85;3.35;;;;;;;;;;5080641;28;20389;-86
2024/02/24 04:34:47;;;;;;;3.63;3.33;;;;;;;;;;5092743;28;20030;-85
2024/02/24 04:37:13;;;;;;;5.32;4.00;;;;;;;;;;5090671;28;20020;-87
2024/02/24 04:39:39;;;;;;;4.30;3.67;;;;;;;;;;5057859;28;20100;-86
2024/02/24 04:42:05;;;;;;;4.40;3.70;;;;;;;;;;5077559;28;20037;-86
2024/02/24 04:44:31;;;;;;;4.13;3.75;;;;;;;;;;5009594;28;20026;-86
2024/02/24 04:46:57;;;;;;;4.63;3.30;;;;;;;;;;5007891;28;20079;-85
2024/02/24 04:49:23;;;;;;;4.13;2.75;;;;;;;;;;5042269;28;20502;-86
2024/02/24 04:51:50;;;;;;;3.97;3.25;;;;;;;;;;5068185;28;20024;-85
2024/02/24 04:54:16;;;;;;;3.65;3.20;;;;;;;;;;5077773;28;20049;-84
2024/02/24 04:56:43;;;;;;;4.57;3.53;;;;;;;;;;5077189;28;20025;-85
2024/02/24 04:59:09;;;;;;;3.13;2.83;;;;;;;;;;5077646;28;20109;-84
2024/02/24 05:01:37;;;;;;;3.50;3.20;;;;;;;;;;5007695;28;20105;-84
2024/02/24 05:04:03;;;;;;;4.88;3.85;;;;;;;;;;5077124;28;20037;-86
2024/02/24 05:06:29;;;;;;;4.00;3.53;;;;;;;;;;5077040;28;20071;-83
2024/02/24 05:08:55;;;;;;;3.38;3.08;;;;;;;;;;5083836;28;20059;-85
2024/02/24 05:11:21;;;;;;;3.75;3.45;;;;;;;;;;5009214;28;20029;-82
2024/02/24 05:13:48;;;;;;;4.65;3.65;;;;;;;;;;5083753;28;20021;-83
2024/02/24 05:16:15;;;;;;;3.95;3.53;;;;;;;;;;5075864;28;20079;-87
2024/02/24 05:18:41;;;;;;;4.20;3.90;;;;;;;;;;5083473;28;20414;-88
2024/02/24 05:21:07;;;;;;;4.13;3.47;;;;;;;;;;5008530;28;20106;-87
2024/02/24 05:23:33;;;;;;;3.63;3.33;;;;;;;;;;4998655;28;20054;-87
2024/02/24 05:26:00;;;;;;;4.28;3.65;;;;;;;;;;5073208;28;20022;-87
2024/02/24 05:28:26;;;;;;;4.15;3.75;;;;;;;;;;5010843;28;20022;-87
2024/02/24 05:30:52;;;;;;;5.05;3.63;;;;;;;;;;5077652;28;20101;-87
2024/02/24 05:33:19;;;;;;;4.00;3.60;;;;;;;;;;5080398;28;20022;-87
2024/02/24 05:35:45;;;;;;;3.72;3.42;;;;;;;;;;5079889;28;20418;-87
2024/02/24 05:38:11;;;;;;;4.28;3.88;;;;;;;;;;5080367;28;20029;-85
2024/02/24 05:40:37;;;;;;;4.82;3.50;;;;;;;;;;5079149;28;20406;-84
2024/02/24 05:43:03;;;;;;;4.18;3.45;;;;;;;;;;5079799;28;20061;-85
2024/02/24 05:45:30;;;;;;;5.25;3.67;;;;;;;;;;5080033;28;20372;-85
2024/02/24 05:47:56;;;;;;;4.60;3.88;;;;;;;;;;5081938;28;20029;-84
2024/02/24 05:50:22;;;;;;;4.28;3.65;;;;;;;;;;5002457;28;20022;-85
2024/02/24 05:52:48;;;;;;;5.65;3.28;;;;;;;;;;5079774;28;20034;-85
2024/02/24 05:55:15;;;;;;;3.95;3.00;;;;;;;;;;5075826;28;20021;-85
2024/02/24 05:57:44;;;;;;;3.22;3.00;;;;;;;;;;5079509;28;20391;-85
2024/02/24 06:00:11;;;;;;;3.78;3.03;;;;;;;;;;5074779;28;20392;-87
2024/02/24 06:02:37;;;;;;;3.30;3.00;;;;;;;;;;5079818;28;20441;-88
2024/02/24 06:05:04;;;;;;;4.40;3.92;;;;;;;;;;5080030;28;20110;-88
2024/02/24 06:07:30;;;;;;;3.95;3.53;;;;;;;;;;5011693;28;20484;-84
2024/02/24 06:09:56;;;;;;;2.83;2.60;;;;;;;;;;5011891;28;20529;-83
2024/02/24 06:12:22;;;;;;;3.13;2.80;;;;;;;;;;5079187;28;20026;-86
2024/02/24 06:14:48;;;;;;;4.05;2.80;;;;;;;;;;5012005;28;20025;-85
2024/02/24 06:17:14;;;;;;;2.28;1.85;;;;;;;;;;5011332;28;20455;-83
2024/02/24 06:19:40;;;;;;;2.10;1.90;;;;;;;;;;5079781;28;20033;-83
2024/02/24 06:22:06;;;;;;;2.90;2.47;;;;;;;;;;5079187;28;20037;-83
2024/02/24 06:24:32;;;;;;;1.88;1.63;;;;;;;;;;5011590;28;20034;-84
2024/02/24 06:26:58;;;;;;;2.15;1.83;;;;;;;;;;5005521;28;20087;-84
2024/02/24 06:29:24;;;;;;;2.13;1.92;;;;;;;;;;5079427;28;20033;-83
2024/02/24 06:31:50;;;;;;;2.90;1.77;;;;;;;;;;5079170;28;20391;-85
2024/02/24 06:34:16;;;;;;;1.38;1.23;;;;;;;;;;5079473;28;20376;-84
2024/02/24 06:36:42;;;;;;;2.22;1.75;;;;;;;;;;5077461;28;20033;-83
2024/02/24 06:39:08;;;;;;;2.08;1.77;;;;;;;;;;5063807;28;20053;-85
2024/02/24 06:41:35;;;;;;;2.13;1.45;;;;;;;;;;5058975;28;20046;-85
2024/02/24 06:44:01;;;;;;;1.45;1.35;;;;;;;;;;5084422;28;20138;-85
2024/02/24 06:46:27;;;;;;;2.47;1.40;;;;;;;;;;5078733;28;20022;-86
2024/02/24 06:48:53;;;;;;;1.65;1.23;;;;;;;;;;5007531;28;20030;-85
2024/02/24 06:51:20;;;;;;;2.53;1.85;;;;;;;;;;5053680;28;20497;-85
2024/02/24 06:53:47;;;;;;;0.95;0.95;;;;;;;;;;5008468;28;20014;-85
2024/02/24 06:56:13;;;;;;;2.78;1.15;;;;;;;;;;5077631;28;20030;-85
2024/02/24 06:58:40;;;;;;;1.55;1.45;;;;;;;;;;5063322;28;20037;-85
2024/02/24 07:01:06;;;;;;;1.23;1.13;;;;;;;;;;5077030;28;20565;-88
2024/02/24 07:03:33;;;;;;;1.10;1.00;;;;;;;;;;5004972;28;20125;-84
2024/02/24 07:06:00;;;;;;;2.75;1.45;;;;;;;;;;5010922;28;20018;-84
2024/02/24 07:08:26;;;;;;;2.78;1.38;;;;;;;;;;5078529;28;20032;-83
2024/02/24 07:10:53;;;;;;;2.35;1.52;;;;;;;;;;5078516;28;20014;-82
2024/02/24 07:13:19;;;;;;;2.65;2.00;;;;;;;;;;5082546;28;20030;-83
2024/02/24 07:15:45;;;;;;;3.45;2.30;;;;;;;;;;5010583;28;20018;-83
2024/02/24 07:18:11;;;;;;;2.95;2.20;;;;;;;;;;5081482;28;20022;-83
2024/02/24 07:20:37;;;;;;;1.98;1.83;;;;;;;;;;5070923;28;20040;-85
2024/02/24 07:23:03;;;;;;;2.90;2.47;;;;;;;;;;5076467;28;20121;-83
2024/02/24 07:25:29;;;;;;;4.35;3.63;;;;;;;;;;5015161;28;20103;-83
2024/02/24 07:27:56;;;;;;;7.55;5.53;;;;;;;;;;5070843;28;20365;-83
2024/02/24 07:30:22;;;;;;;9.55;6.53;;;;;;;;;;5049378;28;20022;-83
2024/02/24 07:32:48;;;;;;;9.23;7.13;;;;;;;;;;4998330;28;20574;-86
2024/02/24 07:35:14;;;;;;;15.88;9.13;;;;;;;;;;5065775;28;20403;-86
2024/02/24 07:37:40;;;;;;;13.40;9.75;;;;;;;;;;5007342;28;20030;-86
2024/02/24 07:40:07;;;;;;;9.55;7.00;;;;;;;;;;5072228;28;20053;-87
2024/02/24 07:42:33;;;;;;;6.82;5.63;;;;;;;;;;5073933;28;20030;-86
2024/02/24 07:44:59;;;;;;;6.05;4.57;;;;;;;;;;5077609;28;20067;-85
2024/02/24 07:47:25;;;;;;;7.10;4.68;;;;;;;;;;5078453;28;20098;-84
2024/02/24 07:49:51;;;;;;;7.18;5.43;;;;;;;;;;5063979;28;20114;-86
2024/02/24 07:52:18;;;;;;;6.32;4.47;;;;;;;;;;5077862;28;20091;-85
2024/02/24 07:54:44;;;;;;;5.47;4.45;;;;;;;;;;5004335;28;20023;-86
2024/02/24 07:57:10;;;;;;;8.68;5.70;;;;;;;;;;4997208;28;20044;-85
2024/02/24 07:59:36;;;;;;;7.45;5.28;;;;;;;;;;5004965;28;20030;-85
2024/02/24 08:02:03;;;;;;;7.72;5.38;;;;;;;;;;5005477;28;20034;-85
2024/02/24 08:04:30;;;;;;;6.53;5.88;;;;;;;;;;5006203;28;20076;-86
2024/02/24 08:06:56;;;;;;;6.93;5.93;;;;;;;;;;5009646;28;20036;-85
2024/02/24 08:09:23;;;;;;;8.45;6.10;;;;;;;;;;4998759;28;20037;-86
2024/02/24 08:11:49;;;;;;;9.95;6.93;;;;;;;;;;4997757;28;20018;-85
2024/02/24 08:14:15;;;;;;;10.10;7.45;;;;;;;;;;5077277;28;20547;-86
2024/02/24 08:16:41;;;;;;;11.82;7.75;;;;;;;;;;5076326;28;20043;-85
2024/02/24 08:19:07;;;;;;;11.27;8.13;;;;;;;;;;5072877;28;20460;-86
2024/02/24 08:21:36;;;;;;;12.32;9.05;;;;;;;;;;5008705;28;20624;-85
2024/02/24 08:24:07;;;;;;;14.77;9.05;;;;;;;;;;5007210;28;20022;-86
2024/02/24 08:26:36;;;;;;;11.20;8.65;;;;;;;;;;5077549;28;20026;-85
2024/02/24 08:29:03;;;;;;;13.00;8.85;;;;;;;;;;5071988;28;20091;-86
2024/02/24 08:31:29;;;;;;;13.52;7.82;;;;;;;;;;5068618;28;20130;-89
2024/02/24 08:33:55;;;;;;;13.13;8.10;;;;;;;;;;5072983;28;20029;-82
2024/02/24 08:36:21;;;;;;;10.68;7.45;;;;;;;;;;5058360;28;20524;-83
2024/02/24 08:38:47;;;;;;;10.65;7.50;;;;;;;;;;5005263;28;20479;-84
2024/02/24 08:41:13;;;;;;;9.23;7.03;;;;;;;;;;5072896;28;20563;-89
2024/02/24 08:43:39;;;;;;;13.27;8.68;;;;;;;;;;5075735;28;20022;-85
2024/02/24 08:46:05;;;;;;;11.02;8.07;;;;;;;;;;5001887;28;20037;-87
2024/02/24 08:48:32;;;;;;;12.50;8.15;;;;;;;;;;5007296;28;20539;-84
2024/02/24 08:50:58;;;;;;;12.55;8.85;;;;;;;;;;5075436;28;20076;-85
2024/02/24 08:53:24;;;;;;;15.63;8.63;;;;;;;;;;4998088;28;20130;-84
2024/02/24 08:55:50;;;;;;;16.17;10.13;;;;;;;;;;5006702;28;20038;-84
2024/02/24 08:58:17;;;;;;;23.30;13.85;;;;;;;;;;5071067;28;20038;-85
2024/02/24 09:00:43;;;;;;;24.92;15.73;;;;;;;;;;5002225;28;20026;-84
2024/02/24 09:03:09;;;;;;;30.35;17.75;;;;;;;;;;5071355;28;20072;-81
2024/02/24 09:05:35;;;;;;;36.35;20.17;;;;;;;;;;5075205;28;20022;-84
2024/02/24 09:08:01;;;;;;;32.97;20.40;;;;;;;;;;5077909;28;20022;-85
2024/02/24 09:10:27;;;;;;;31.25;18.05;;;;;;;;;;5075977;28;20468;-85
2024/02/24 09:12:53;;;;;;;28.35;17.15;;;;;;;;;;5077146;28;20459;-86
2024/02/24 09:15:19;;;;;;;28.13;16.92;;;;;;;;;;5078301;28;20091;-87
2024/02/24 09:17:45;;;;;;;29.92;16.80;;;;;;;;;;5006070;28;20014;-87
2024/02/24 09:20:11;;;;;;;33.03;16.77;;;;;;;;;;5074425;28;20045;-87
2024/02/24 09:22:38;;;;;;;39.13;20.45;;;;;;;;;;5074176;28;20239;-86
2024/02/24 09:25:04;;;;;;;38.97;20.98;;;;;;;;;;5078513;28;20026;-87
2024/02/24 09:27:31;;;;;;;39.08;21.08;;;;;;;;;;5010827;28;20567;-87
2024/02/24 09:29:57;;;;;;;39.35;21.67;;;;;;;;;;5070119;28;20034;-86
2024/02/24 09:32:23;;;;;;;41.05;21.98;;;;;;;;;;5079307;28;20083;-85
2024/02/24 09:34:49;;;;;;;39.20;22.35;;;;;;;;;;5010220;28;20037;-84
2024/02/24 09:37:16;;;;;;;43.55;23.63;;;;;;;;;;5077710;28;20479;-86
2024/02/24 09:39:42;;;;;;;46.42;24.85;;;;;;;;;;5006128;28;20054;-85
2024/02/24 09:42:09;;;;;;;35.42;21.02;;;;;;;;;;5011641;28;20064;-83
2024/02/24 09:44:36;;;;;;;48.20;25.40;;;;;;;;;;5079005;28;20105;-85
2024/02/24 09:47:03;;;;;;;45.20;24.00;;;;;;;;;;5006722;28;20028;-82
2024/02/24 09:49:30;;;;;;;39.33;20.60;;;;;;;;;;5004408;28;20014;-82
2024/02/24 09:51:57;;;;;;;33.95;19.83;;;;;;;;;;5072863;28;20038;-83
2024/02/24 09:54:24;;;;;;;31.40;18.30;;;;;;;;;;5007424;28;20060;-82
2024/02/24 09:56:53;;;;;;;29.02;17.10;;;;;;;;;;5005352;28;20026;-82
2024/02/24 09:59:20;;;;;;;30.10;17.45;;;;;;;;;;5007929;28;20030;-83
2024/02/24 10:01:47;;;;;;;24.27;14.90;;;;;;;;;;5077880;28;20063;-82
2024/02/24 10:04:14;;;;;;;20.90;12.32;;;;;;;;;;5074286;28;20502;-82
2024/02/24 10:06:41;;;;;;;19.35;12.27;;;;;;;;;;5076476;28;20471;-82
2024/02/24 10:09:07;;;;;;;20.52;11.25;;;;;;;;;;5004549;28;20030;-81
2024/02/24 10:11:37;;;;;;;20.75;13.18;;;;;;;;;;5072497;28;20495;-80
2024/02/24 10:14:03;;;;;;;18.35;12.75;;;;;;;;;;5075607;28;20055;-82
2024/02/24 10:16:30;;;;;;;23.58;11.88;;;;;;;;;;5009944;28;20037;-85
2024/02/24 10:18:56;;;;;;;17.20;11.00;;;;;;;;;;5076339;28;20018;-85
2024/02/24 10:21:22;;;;;;;31.88;17.45;;;;;;;;;;5008767;28;20038;-82
2024/02/24 10:23:48;;;;;;;15.98;10.23;;;;;;;;;;5076837;28;20042;-83
2024/02/24 10:26:15;;;;;;;14.75;10.23;;;;;;;;;;5005762;28;20030;-82
2024/02/24 10:28:41;;;;;;;15.88;10.50;;;;;;;;;;5003835;28;20029;-83
2024/02/24 10:31:07;;;;;;;17.08;11.10;;;;;;;;;;5003758;28;20033;-84
2024/02/24 10:33:34;;;;;;;19.60;12.95;;;;;;;;;;5076187;28;20026;-85
2024/02/24 10:36:00;;;;;;;15.48;11.27;;;;;;;;;;5078216;28;20113;-84
2024/02/24 10:38:27;;;;;;;21.23;12.82;;;;;;;;;;5005765;28;20022;-82
2024/02/24 10:40:53;;;;;;;23.67;14.00;;;;;;;;;;5008546;28;20049;-83
2024/02/24 10:43:21;;;;;;;29.13;16.63;;;;;;;;;;5073121;28;20038;-87
2024/02/24 10:45:47;;;;;;;23.77;13.77;;;;;;;;;;5005108;28;20022;-80
2024/02/24 10:48:13;;;;;;;22.70;14.60;;;;;;;;;;5073284;28;20056;-80
2024/02/24 10:50:39;;;;;;;14.20;9.88;;;;;;;;;;5073688;28;20113;-81
2024/02/24 10:53:06;;;;;;;19.05;11.82;;;;;;;;;;5075480;28;20018;-80
2024/02/24 10:55:32;;;;;;;15.85;11.02;;;;;;;;;;5061019;28;20022;-87
2024/02/24 10:57:58;;;;;;;12.75;9.80;;;;;;;;;;5004288;28;20058;-79
2024/02/24 11:00:31;;;;;;;18.27;11.07;;;;;;;;;;5008758;28;20434;-77
2024/02/24 11:02:57;;;;;;;;;;;;;;;;;;5050901;28;20122;-73
2024/02/24 11:05:24;;;;;;;8.45;6.05;;;;;;;;;;5005187;28;20319;-83
2024/02/24 11:07:50;;;;;;;19.48;14.00;;;;;;;;;;5004478;28;20026;-78
2024/02/24 11:10:18;;;;;;;36.13;22.77;;;;;;;;;;5072998;28;20042;-78
2024/02/24 11:12:44;;;;;;;47.42;30.95;;;;;;;;;;5000213;28;20026;-84
2024/02/24 11:15:17;;;;;;;22.08;15.55;;;;;;;;;;5062831;28;20496;-85
2024/02/24 11:17:51;;;;;;;15.00;12.07;;;;;;;;;;4999877;28;20023;-84
2024/02/24 11:20:32;;;;;;;12.10;9.32;;;;;;;;;;5008400;28;20410;-84
2024/02/24 11:23:17;;;;;;;33.25;22.88;;;;;;;;;;5009180;28;20053;-84
2024/02/24 11:25:43;;;;;;;22.73;13.60;;;;;;;;;;5059278;28;20035;-84
2024/02/24 11:28:10;;;;;;;14.95;10.55;;;;;;;;;;5072876;28;20068;-84
2024/02/24 11:30:36;;;;;;;12.85;7.82;;;;;;;;;;4997614;28;20050;-84
2024/02/24 11:33:20;;;;;;;16.10;10.80;;;;;;;;;;5070472;28;20022;-84
2024/02/24 11:35:47;;;;;;;32.13;18.30;;;;;;;;;;5006331;28;20444;-80
2024/02/24 11:38:14;;;;;;;23.83;14.70;;;;;;;;;;5078058;28;20407;-81
2024/02/24 11:40:41;;;;;;;58.08;31.33;;;;;;;;;;5006125;28;20053;-80
2024/02/24 11:43:08;;;;;;;50.17;24.40;;;;;;;;;;4994250;28;20034;-84
2024/02/24 11:45:35;;;;;;;17.73;11.52;;;;;;;;;;5000974;28;20026;-82
2024/02/24 11:48:01;;;;;;;45.03;22.77;;;;;;;;;;5003026;28;20045;-83
2024/02/24 11:50:27;;;;;;;58.03;25.20;;;;;;;;;;4993165;28;20034;-82
2024/02/24 11:52:53;;;;;;;66.47;31.50;;;;;;;;;;5070949;28;20021;-82
2024/02/24 11:55:20;;;;;;;93.20;39.38;;;;;;;;;;4994063;28;20050;-82
2024/02/24 11:57:46;;;;;;;68.75;29.25;;;;;;;;;;5070798;28;20038;-82
2024/02/24 12:00:12;;;;;;;97.50;45.63;;;;;;;;;;5077270;28;20057;-83
2024/02/24 12:02:38;;;;;;;17.02;9.50;;;;;;;;;;5077529;28;20049;-84
2024/02/24 12:05:17;;;;;;;17.13;10.68;;;;;;;;;;5077811;28;20464;-84
2024/02/24 12:07:43;;;;;;;42.63;18.17;;;;;;;;;;5064711;28;20042;-83
2024/02/24 12:10:09;;;;;;;48.78;19.00;;;;;;;;;;5010231;28;20104;-83
2024/02/24 12:12:36;;;;;;;168.52;73.47;;;;;;;;;;5077408;28;20022;-81
2024/02/24 12:15:02;;;;;;;114.55;44.50;;;;;;;;;;5010132;28;20055;-81
2024/02/24 12:17:28;;;;;;;196.65;76.75;;;;;;;;;;5009769;28;20063;-82
2024/02/24 12:19:56;;;;;;;56.55;20.45;;;;;;;;;;5077427;28;20122;-80
2024/02/24 12:22:23;;;;;;;17.25;8.52;;;;;;;;;;5077064;28;20387;-81
2024/02/24 12:24:49;;;;;;;32.10;17.45;;;;;;;;;;5087351;28;20453;-81
2024/02/24 12:27:15;;;;;;;19.02;10.73;;;;;;;;;;5009614;28;20022;-82
2024/02/24 12:29:41;;;;;;;16.05;10.15;;;;;;;;;;5077495;28;20022;-82
2024/02/24 12:32:07;;;;;;;35.75;15.77;;;;;;;;;;5009451;28;20029;-81
2024/02/24 12:34:34;;;;;;;29.10;16.00;;;;;;;;;;5007528;28;20391;-82
2024/02/24 12:37:03;;;;;;;40.28;20.17;;;;;;;;;;5000806;28;20051;-82
2024/02/24 12:39:34;;;;;;;39.15;19.40;;;;;;;;;;5079298;28;20061;-83
2024/02/24 12:42:01;;;;;;;37.60;19.70;;;;;;;;;;5007539;28;20116;-86
2024/02/24 12:44:27;;;;;;;33.75;15.93;;;;;;;;;;5074347;28;20034;-81
2024/02/24 12:46:53;;;;;;;15.75;9.85;;;;;;;;;;5079784;28;20055;-82
2024/02/24 12:49:19;;;;;;;15.32;8.70;;;;;;;;;;5077276;28;20022;-83
2024/02/24 12:51:52;;;;;;;16.35;8.88;;;;;;;;;;4997413;28;20475;-82
2024/02/24 12:54:18;;;;;;;12.10;8.35;;;;;;;;;;5073036;28;20489;-83
2024/02/24 12:56:44;;;;;;;13.32;8.80;;;;;;;;;;5085964;28;20030;-88
2024/02/24 12:59:12;;;;;;;13.30;8.68;;;;;;;;;;5002474;28;20033;-87
2024/02/24 13:01:38;;;;;;;24.10;10.73;;;;;;;;;;5005614;28;20049;-86
2024/02/24 13:04:05;;;;;;;16.08;10.30;;;;;;;;;;5003013;28;20022;-85
2024/02/24 13:06:31;;;;;;;13.18;8.18;;;;;;;;;;4998457;28;20027;-83
2024/02/24 13:08:57;;;;;;;8.50;5.43;;;;;;;;;;4994501;28;20030;-86
2024/02/24 13:11:23;;;;;;;6.15;4.72;;;;;;;;;;5080458;28;20041;-88
2024/02/24 13:13:49;;;;;;;11.15;6.53;;;;;;;;;;5070877;28;20038;-84
2024/02/24 13:16:15;;;;;;;7.80;5.80;;;;;;;;;;5073461;28;20045;-87
2024/02/24 13:18:41;;;;;;;7.50;5.28;;;;;;;;;;5000747;28;20040;-85
2024/02/24 13:21:07;;;;;;;10.45;6.22;;;;;;;;;;4991107;28;20046;-85
2024/02/24 13:23:33;;;;;;;13.07;9.43;;;;;;;;;;5077522;28;20025;-85
2024/02/24 13:25:59;;;;;;;13.32;9.07;;;;;;;;;;4996595;28;20056;-82
2024/02/24 13:28:25;;;;;;;12.05;6.55;;;;;;;;;;5061175;28;20023;-82
2024/02/24 13:30:51;;;;;;;5.72;5.05;;;;;;;;;;5001600;28;20113;-83
2024/02/24 13:33:17;;;;;;;6.88;5.30;;;;;;;;;;5078700;28;20026;-79
2024/02/24 13:35:43;;;;;;;11.07;6.75;;;;;;;;;;5066097;28;20027;-79
2024/02/24 13:38:09;;;;;;;8.75;5.95;;;;;;;;;;5006679;28;20028;-80
2024/02/24 13:40:35;;;;;;;7.35;4.95;;;;;;;;;;5078298;28;20157;-79
2024/02/24 13:43:02;;;;;;;8.15;4.88;;;;;;;;;;5010103;28;20038;-80
2024/02/24 13:45:28;;;;;;;6.68;4.75;;;;;;;;;;5008033;28;20105;-79
2024/02/24 13:47:54;;;;;;;6.90;5.47;;;;;;;;;;5073151;28;20030;-80
2024/02/24 13:50:22;;;;;;;8.98;5.60;;;;;;;;;;5005896;28;20026;-79
2024/02/24 13:52:48;;;;;;;7.88;5.30;;;;;;;;;;5077767;28;20025;-80
2024/02/24 13:55:14;;;;;;;7.90;5.47;;;;;;;;;;5010488;28;20040;-79
2024/02/24 13:57:41;;;;;;;10.30;5.60;;;;;;;;;;5079424;28;20060;-78
2024/02/24 14:00:10;;;;;;;4.88;4.40;;;;;;;;;;5010874;28;20527;-78
2024/02/24 14:02:36;;;;;;;5.88;4.13;;;;;;;;;;5010118;28;20030;-79
2024/02/24 14:05:02;;;;;;;5.63;3.70;;;;;;;;;;5004362;28;20495;-79
2024/02/24 14:07:28;;;;;;;7.60;4.07;;;;;;;;;;5009873;28;20041;-78
2024/02/24 14:09:54;;;;;;;7.45;5.63;;;;;;;;;;5008327;28;20025;-79
2024/02/24 14:12:21;;;;;;;9.27;6.80;;;;;;;;;;5077299;28;20019;-79
2024/02/24 14:14:47;;;;;;;10.02;5.63;;;;;;;;;;5078253;28;20104;-79
2024/02/24 14:17:13;;;;;;;7.57;5.07;;;;;;;;;;5000814;28;20196;-79
2024/02/24 14:19:39;;;;;;;6.28;3.92;;;;;;;;;;5077708;28;20030;-78
2024/02/24 14:22:05;;;;;;;5.00;3.75;;;;;;;;;;5076833;28;20041;-79
2024/02/24 14:24:32;;;;;;;7.00;5.40;;;;;;;;;;5010290;28;20148;-78
2024/02/24 14:26:58;;;;;;;5.72;4.25;;;;;;;;;;5070574;28;20033;-77
2024/02/24 14:29:24;;;;;;;6.55;4.63;;;;;;;;;;5073426;28;20019;-78